Time;durP1;ratioP1;P1;durP2;ratioP2;P2;SDS_P1;SDS_P2;PMS_P1;PMS_P2;Temp;Humidity;BMP_temperature;BMP_pressure;BME280_temperature;BME280_humidity;BME280_pressure;Samples;Min_cycle;Max_cycle;Signal;HPM_P1;HPM_P2
2021/04/03 00:01:03;;;;;;;;;;;3.10;95.00;;;;;;5075850;28;20364;-68
2021/04/03 00:03:29;;;;;;;;;;;3.00;95.20;;;;;;5075663;28;19920;-69
2021/04/03 00:05:55;;;;;;;;;;;2.90;95.50;;;;;;5075712;28;19916;-68
2021/04/03 00:08:24;;;;;;;;;;;2.90;95.50;;;;;;5073880;28;20216;-69
2021/04/03 00:10:53;;;;;;;;;;;2.90;95.60;;;;;;5074895;28;20016;-68
2021/04/03 00:13:20;;;;;;;;;;;2.90;95.60;;;;;;5066113;28;20314;-68
2021/04/03 00:15:46;;;;;;;;;;;2.90;95.60;;;;;;5076024;28;19924;-68
2021/04/03 00:18:12;;;;;;;;;;;2.90;95.60;;;;;;5075610;28;19913;-69
2021/04/03 00:20:38;;;;;;;;;;;2.90;95.60;;;;;;5078627;28;19951;-68
2021/04/03 00:23:04;;;;;;;;;;;2.90;95.70;;;;;;5074519;28;20339;-67
2021/04/03 00:25:30;;;;;;;;;;;3.00;95.60;;;;;;5076079;28;19912;-67
2021/04/03 00:27:55;;;;;;;;;;;3.10;95.60;;;;;;5074845;28;20317;-67
2021/04/03 00:30:22;;;;;;;;;;;3.10;95.50;;;;;;5075956;28;19938;-68
2021/04/03 00:32:49;;;;;;;;;;;3.20;95.40;;;;;;5074815;28;20003;-68
2021/04/03 00:35:17;;;;;;;;;;;3.30;95.10;;;;;;5076189;28;19916;-69
2021/04/03 00:37:42;;;;;;;;;;;3.30;94.90;;;;;;5079863;28;20262;-68
2021/04/03 00:40:09;;;;;;;;;;;3.40;94.90;;;;;;5075746;28;19920;-69
2021/04/03 00:42:35;;;;;;;;;;;3.40;94.90;;;;;;5082901;28;19920;-69
2021/04/03 00:45:01;;;;;;;;;;;3.40;94.80;;;;;;5075978;28;19923;-69
2021/04/03 00:47:26;;;;;;;;;;;3.40;94.60;;;;;;5075992;28;20321;-69
2021/04/03 00:49:52;;;;;;;;;;;3.40;94.50;;;;;;5075736;28;19912;-69
2021/04/03 00:52:17;;;;;;;;;;;3.50;94.20;;;;;;5075018;28;19995;-69
2021/04/03 00:54:43;;;;;;;;;;;3.50;93.40;;;;;;5076890;28;20228;-69
2021/04/03 00:57:09;;;;;;;;;;;3.50;93.00;;;;;;5075052;28;19993;-70
2021/04/03 00:59:34;;;;;;;;;;;3.50;92.80;;;;;;5073919;28;20304;-69
2021/04/03 01:02:00;;;;;;;;;;;3.50;92.80;;;;;;5075272;28;19951;-69
2021/04/03 01:04:26;;;;;;;;;;;3.50;92.40;;;;;;5074443;28;19955;-70
2021/04/03 01:06:51;;;;;;;;;;;3.50;91.80;;;;;;5074146;28;19912;-69
2021/04/03 01:09:17;;;;;;;;;;;3.50;91.60;;;;;;5089687;28;19919;-69
2021/04/03 01:12:02;;;;;;;;;;;3.50;91.30;;;;;;5059486;28;20271;-69
2021/04/03 01:14:35;;;;;;;;;;;3.40;91.20;;;;;;5065188;28;20002;-69
2021/04/03 01:17:10;;;;;;;;;;;3.40;91.00;;;;;;5065316;28;19923;-68
2021/04/03 01:19:57;;;;;;;;;;;3.40;90.70;;;;;;5074917;28;19912;-69
2021/04/03 01:22:34;;;;;;;;;;;3.40;90.20;;;;;;5095974;28;19966;-69
2021/04/03 01:25:12;;;;;;;;;;;3.40;90.60;;;;;;5083674;28;19935;-69
2021/04/03 01:28:05;;;;;;;;;;;3.30;90.40;;;;;;5104330;28;20236;-68
2021/04/03 01:30:31;;;;;;;;;;;3.30;90.50;;;;;;5077709;28;20280;-69
2021/04/03 01:33:00;;;;;;;;;;;3.30;90.70;;;;;;5094846;28;19909;-68
2021/04/03 01:35:31;;;;;;;;;;;3.30;90.10;;;;;;5086637;28;19909;-68
2021/04/03 01:37:59;;;;;;;;;;;3.30;90.40;;;;;;5073190;28;19947;-68
2021/04/03 01:40:26;;;;;;;;;;;3.30;90.30;;;;;;5074086;28;19920;-68
2021/04/03 01:43:04;;;;;;;;;;;3.20;90.00;;;;;;5075562;28;19916;-69
2021/04/03 01:45:31;;;;;;;;;;;3.20;90.40;;;;;;5074860;28;19912;-71
2021/04/03 01:47:56;;;;;;;;;;;3.30;90.60;;;;;;5076662;28;19924;-70
2021/04/03 01:50:24;;;;;;;;;;;3.30;90.20;;;;;;5090429;28;19939;-69
2021/04/03 01:52:50;;;;;;;;;;;3.30;89.80;;;;;;5073631;28;19995;-69
2021/04/03 01:55:18;;;;;;;;;;;3.20;90.00;;;;;;5075281;28;20360;-70
2021/04/03 01:57:45;;;;;;;;;;;3.20;90.60;;;;;;5075086;28;19920;-70
2021/04/03 02:00:12;;;;;;;;;;;3.20;90.10;;;;;;5074752;28;19912;-69
2021/04/03 02:02:38;;;;;;;;;;;3.10;90.10;;;;;;5074557;28;19916;-69
2021/04/03 02:05:05;;;;;;;;;;;3.10;90.50;;;;;;5074570;28;19919;-69
2021/04/03 02:07:33;;;;;;;;;;;3.10;90.50;;;;;;5075422;28;20116;-69
2021/04/03 02:10:00;;;;;;;;;;;3.10;90.10;;;;;;5083090;28;19908;-69
2021/04/03 02:12:25;;;;;;;;;;;3.10;90.00;;;;;;5080922;28;19927;-69
2021/04/03 02:14:52;;;;;;;;;;;3.10;90.30;;;;;;5075116;28;19924;-69
2021/04/03 02:17:19;;;;;;;;;;;3.10;90.50;;;;;;5075124;28;19948;-69
2021/04/03 02:19:44;;;;;;;;;;;3.10;90.30;;;;;;5078874;28;19920;-69
2021/04/03 02:22:14;;;;;;;;;;;3.00;90.60;;;;;;5077132;28;19912;-69
2021/04/03 02:24:39;;;;;;;;;;;2.90;90.90;;;;;;5088341;28;20133;-69
2021/04/03 02:27:05;;;;;;;;;;;2.80;91.10;;;;;;5080543;28;20363;-69
2021/04/03 02:29:31;;;;;;;;;;;2.70;91.50;;;;;;5080509;28;19917;-69
2021/04/03 02:31:56;;;;;;;;;;;2.70;91.50;;;;;;5077914;28;19912;-69
2021/04/03 02:34:22;;;;;;;;;;;2.60;91.60;;;;;;5078246;28;19912;-69
2021/04/03 02:36:47;;;;;;;;;;;2.60;91.90;;;;;;5077460;28;19912;-69
2021/04/03 02:39:13;;;;;;;;;;;2.40;92.00;;;;;;5075919;28;19916;-69
2021/04/03 02:41:57;;;;;;;;;;;2.30;92.20;;;;;;5083651;28;19923;-70
2021/04/03 02:44:34;;;;;;;;;;;2.10;92.60;;;;;;5086725;28;19924;-70
2021/04/03 02:47:21;;;;;;;;;;;2.00;93.00;;;;;;5066718;28;19955;-70
2021/04/03 02:50:00;;;;;;;;;;;1.90;93.30;;;;;;5076728;28;20223;-71
2021/04/03 02:52:26;;;;;;;;;;;1.90;93.50;;;;;;5075940;28;19919;-69
2021/04/03 02:54:55;;;;;;;;;;;1.80;93.80;;;;;;5083316;28;19996;-69
2021/04/03 02:57:21;;;;;;;;;;;1.80;93.90;;;;;;5080937;28;19919;-68
2021/04/03 02:59:50;;;;;;;;;;;1.70;94.00;;;;;;5077687;28;19912;-67
2021/04/03 03:02:16;;;;;;;;;;;1.70;94.10;;;;;;5076166;28;20316;-69
2021/04/03 03:04:42;;;;;;;;;;;1.80;94.20;;;;;;5077420;28;19921;-69
2021/04/03 03:07:08;;;;;;;;;;;1.80;94.00;;;;;;5077695;28;20258;-69
2021/04/03 03:09:35;;;;;;;;;;;1.90;93.90;;;;;;5077526;28;19962;-69
2021/04/03 03:12:01;;;;;;;;;;;1.80;93.90;;;;;;5077269;28;19920;-70
2021/04/03 03:14:28;;;;;;;;;;;1.80;93.90;;;;;;5077316;28;19928;-70
2021/04/03 03:16:54;;;;;;;;;;;1.80;93.80;;;;;;5077495;28;19919;-69
2021/04/03 03:19:20;;;;;;;;;;;1.80;94.10;;;;;;5077470;28;19967;-70
2021/04/03 03:21:49;;;;;;;;;;;1.70;93.90;;;;;;5089421;28;19951;-70
2021/04/03 03:24:15;;;;;;;;;;;1.60;94.10;;;;;;5074846;28;20580;-70
2021/04/03 03:26:41;;;;;;;;;;;1.50;94.40;;;;;;5076514;28;19977;-69
2021/04/03 03:29:11;;;;;;;;;;;1.50;94.50;;;;;;5076322;28;19913;-69
2021/04/03 03:31:40;;;;;;;;;;;1.60;94.60;;;;;;5076332;28;19936;-70
2021/04/03 03:34:07;;;;;;;;;;;1.60;94.30;;;;;;5075958;28;20213;-70
2021/04/03 03:36:33;;;;;;;;;;;1.50;94.40;;;;;;5076835;28;20366;-69
2021/04/03 03:38:59;;;;;;;;;;;1.50;94.50;;;;;;5075936;28;19919;-70
2021/04/03 03:41:25;;;;;;;;;;;1.50;94.50;;;;;;5073836;28;19913;-69
2021/04/03 03:43:51;;;;;;;;;;;1.40;94.60;;;;;;5076172;28;19923;-70
2021/04/03 03:46:17;;;;;;;;;;;1.50;94.70;;;;;;5077233;28;19908;-70
2021/04/03 03:48:42;;;;;;;;;;;1.40;94.80;;;;;;5074746;28;19924;-70
2021/04/03 03:51:08;;;;;;;;;;;1.30;95.10;;;;;;5075601;28;19916;-70
2021/04/03 03:53:36;;;;;;;;;;;1.30;95.30;;;;;;5080152;28;19916;-70
2021/04/03 03:56:01;;;;;;;;;;;1.30;95.20;;;;;;5076649;28;19913;-70
2021/04/03 03:58:27;;;;;;;;;;;1.30;95.20;;;;;;5076700;28;19920;-70
2021/04/03 04:00:52;;;;;;;;;;;1.30;94.70;;;;;;5076192;28;20013;-70
2021/04/03 04:03:20;;;;;;;;;;;1.30;94.80;;;;;;5076122;28;19979;-71
2021/04/03 04:05:46;;;;;;;;;;;1.30;94.70;;;;;;5075275;28;19923;-69
2021/04/03 04:08:11;;;;;;;;;;;1.20;94.80;;;;;;5075632;28;19908;-69
2021/04/03 04:10:37;;;;;;;;;;;1.20;95.00;;;;;;5075916;28;19912;-70
2021/04/03 04:13:03;;;;;;;;;;;1.10;95.10;;;;;;5076021;28;19916;-70
2021/04/03 04:15:28;;;;;;;;;;;1.00;95.30;;;;;;5076000;28;19920;-70
2021/04/03 04:17:54;;;;;;;;;;;0.90;95.40;;;;;;5076500;28;19913;-70
2021/04/03 04:20:19;;;;;;;;;;;0.80;95.50;;;;;;5076430;28;19908;-70
2021/04/03 04:22:45;;;;;;;;;;;0.70;95.80;;;;;;5068507;28;19915;-70
2021/04/03 04:25:10;;;;;;;;;;;0.60;95.90;;;;;;5055411;28;19917;-70
2021/04/03 04:27:39;;;;;;;;;;;0.50;96.10;;;;;;5055084;28;19921;-69
2021/04/03 04:30:12;;;;;;;;;;;0.40;96.30;;;;;;5055020;28;20340;-69
2021/04/03 04:32:38;;;;;;;;;;;0.30;96.30;;;;;;5053909;28;19924;-69
2021/04/03 04:35:04;;;;;;;;;;;0.20;96.40;;;;;;5053928;28;20313;-68
2021/04/03 04:37:32;;;;;;;;;;;0.00;96.40;;;;;;5054233;28;19913;-71
2021/04/03 04:39:58;;;;;;;;;;;-0.10;96.30;;;;;;5054453;28;20305;-71
2021/04/03 04:42:23;;;;;;;;;;;-0.20;96.70;;;;;;5055796;28;19928;-71
2021/04/03 04:44:49;;;;;;;;;;;-0.30;96.50;;;;;;5055116;28;19921;-71
2021/04/03 04:47:14;;;;;;;;;;;-0.40;96.30;;;;;;5054214;28;19920;-71
2021/04/03 04:49:42;;;;;;;;;;;-0.40;96.70;;;;;;5055365;28;20570;-71
2021/04/03 04:52:08;;;;;;;;;;;-0.40;96.60;;;;;;5055148;28;19952;-71
2021/04/03 04:54:42;;;;;;;;;;;-0.40;96.90;;;;;;5054197;28;19986;-70
2021/04/03 04:57:10;;;;;;;;;;;-0.50;96.70;;;;;;5055556;28;20224;-70
2021/04/03 04:59:39;;;;;;;;;;;-0.50;96.70;;;;;;5055185;28;19999;-70
2021/04/03 05:02:04;;;;;;;;;;;-0.50;96.90;;;;;;5051156;28;19917;-71
2021/04/03 05:04:30;;;;;;;;;;;-0.50;97.00;;;;;;5051725;28;20193;-70
2021/04/03 05:06:55;;;;;;;;;;;-0.50;96.90;;;;;;5054342;28;19924;-70
2021/04/03 05:09:24;;;;;;;;;;;-0.60;96.90;;;;;;5054220;28;19913;-70
2021/04/03 05:11:49;;;;;;;;;;;-0.60;96.90;;;;;;5055260;28;19947;-70
2021/04/03 05:14:15;;;;;;;;;;;-0.60;96.80;;;;;;5052970;28;20336;-69
2021/04/03 05:16:42;;;;;;;;;;;-0.60;96.90;;;;;;5055152;28;20003;-70
2021/04/03 05:19:08;;;;;;;;;;;-0.60;96.70;;;;;;5054461;28;19920;-70
2021/04/03 05:21:33;;;;;;;;;;;-0.60;96.70;;;;;;5054769;28;19921;-69
2021/04/03 05:23:59;;;;;;;;;;;-0.50;97.00;;;;;;5053425;28;20255;-70
2021/04/03 05:26:24;;;;;;;;;;;-0.50;97.00;;;;;;5055288;28;19967;-70
2021/04/03 05:28:50;;;;;;;;;;;-0.50;97.10;;;;;;5054582;28;19968;-70
2021/04/03 05:31:20;;;;;;;;;;;-0.50;97.00;;;;;;5061658;28;20273;-70
2021/04/03 05:33:46;;;;;;;;;;;-0.50;97.00;;;;;;5053565;28;19925;-70
2021/04/03 05:36:11;;;;;;;;;;;-0.50;97.00;;;;;;5054091;28;19987;-70
2021/04/03 05:38:39;;;;;;;;;;;-0.50;97.10;;;;;;5053699;28;19966;-71
2021/04/03 05:41:05;;;;;;;;;;;-0.40;96.90;;;;;;5054483;28;20007;-71
2021/04/03 05:43:33;;;;;;;;;;;-0.40;97.00;;;;;;5054078;28;20015;-71
2021/04/03 05:45:59;;;;;;;;;;;-0.20;96.90;;;;;;5054615;28;20317;-70
2021/04/03 05:48:27;;;;;;;;;;;-0.10;97.10;;;;;;5054675;28;19920;-70
2021/04/03 05:50:54;;;;;;;;;;;0.10;97.10;;;;;;5055211;28;19952;-70
2021/04/03 05:53:20;;;;;;;;;;;0.30;97.10;;;;;;5053213;28;20254;-70
2021/04/03 05:55:46;;;;;;;;;;;0.50;97.00;;;;;;5053329;28;19947;-70
2021/04/03 05:58:12;;;;;;;;;;;0.70;97.10;;;;;;5058032;28;20305;-70
2021/04/03 06:00:38;;;;;;;;;;;0.90;97.40;;;;;;5054256;28;19924;-70
2021/04/03 06:03:03;;;;;;;;;;;1.10;97.00;;;;;;5054820;28;19917;-70
2021/04/03 06:05:31;;;;;;;;;;;1.30;96.80;;;;;;5057314;28;20010;-70
2021/04/03 06:07:59;;;;;;;;;;;1.40;96.40;;;;;;5056663;28;19946;-70
2021/04/03 06:10:25;;;;;;;;;;;1.60;96.20;;;;;;5058453;28;19920;-70
2021/04/03 06:12:50;;;;;;;;;;;1.70;95.80;;;;;;5057871;28;19913;-71
2021/04/03 06:15:33;;;;;;;;;;;1.90;95.50;;;;;;5058317;28;20023;-71
2021/04/03 06:18:00;;;;;;;;;;;2.10;95.20;;;;;;5058122;28;19913;-70
2021/04/03 06:20:34;;;;;;;;;;;2.30;94.80;;;;;;5061789;28;19917;-70
2021/04/03 06:23:02;;;;;;;;;;;2.40;92.90;;;;;;5055952;28;19919;-71
2021/04/03 06:25:28;;;;;;;;;;;2.60;92.00;;;;;;5057607;28;20019;-69
2021/04/03 06:28:09;;;;;;;;;;;2.70;92.60;;;;;;5055856;28;20055;-70
2021/04/03 06:30:36;;;;;;;;;;;2.60;92.80;;;;;;5055345;28;19948;-70
2021/04/03 06:33:20;;;;;;;;;;;2.60;93.60;;;;;;5055361;28;20224;-70
2021/04/03 06:36:03;;;;;;;;;;;2.60;93.00;;;;;;5055483;28;19913;-70
2021/04/03 06:38:29;;;;;;;;;;;2.80;91.70;;;;;;5055992;28;20237;-70
2021/04/03 06:41:14;;;;;;;;;;;3.00;90.30;;;;;;5056948;28;19917;-70
2021/04/03 06:43:39;;;;;;;;;;;3.10;88.80;;;;;;5056138;28;19925;-70
2021/04/03 06:46:25;;;;;;;;;;;3.30;88.90;;;;;;5056497;28;20008;-70
2021/04/03 06:48:56;;;;;;;;;;;3.30;88.40;;;;;;5056115;28;19999;-70
2021/04/03 06:51:25;;;;;;;;;;;3.30;88.80;;;;;;5055845;28;20298;-70
2021/04/03 06:53:52;;;;;;;;;;;3.40;87.70;;;;;;5054315;28;20469;-69
2021/04/03 06:56:21;;;;;;;;;;;3.30;87.80;;;;;;5053657;28;19984;-70
2021/04/03 06:58:47;;;;;;;;;;;3.50;87.70;;;;;;5058671;28;20305;-70
2021/04/03 07:01:16;;;;;;;;;;;3.70;87.90;;;;;;5056038;28;19921;-71
2021/04/03 07:03:43;;;;;;;;;;;3.80;87.30;;;;;;5057095;28;19916;-71
2021/04/03 07:06:13;;;;;;;;;;;3.90;86.50;;;;;;5058423;28;19916;-71
2021/04/03 07:08:39;;;;;;;;;;;4.10;86.10;;;;;;5059817;28;19995;-70
2021/04/03 07:11:06;;;;;;;;;;;4.30;85.30;;;;;;5057354;28;19964;-69
2021/04/03 07:13:31;;;;;;;;;;;4.30;84.40;;;;;;5057430;28;20315;-70
2021/04/03 07:15:58;;;;;;;;;;;4.20;84.40;;;;;;5065771;28;19966;-70
2021/04/03 07:18:24;;;;;;;;;;;4.30;84.60;;;;;;5072366;28;20035;-70
2021/04/03 07:20:50;;;;;;;;;;;4.30;84.90;;;;;;5056106;28;20043;-71
2021/04/03 07:23:19;;;;;;;;;;;4.30;84.50;;;;;;5052900;28;19912;-70
2021/04/03 07:25:45;;;;;;;;;;;4.30;84.90;;;;;;5056106;28;19921;-70
2021/04/03 07:28:11;;;;;;;;;;;4.20;84.90;;;;;;5056178;28;19928;-71
2021/04/03 07:30:38;;;;;;;;;;;4.30;84.80;;;;;;5057057;28;19919;-69
2021/04/03 07:33:07;;;;;;;;;;;4.30;85.30;;;;;;5055552;28;19913;-70
2021/04/03 07:35:37;;;;;;;;;;;4.50;84.20;;;;;;5047808;28;20190;-71
2021/04/03 07:38:07;;;;;;;;;;;4.60;83.80;;;;;;5054145;28;20209;-70
2021/04/03 07:40:33;;;;;;;;;;;4.70;82.80;;;;;;5056466;28;19920;-71
2021/04/03 07:42:58;;;;;;;;;;;4.40;83.10;;;;;;5054259;28;19931;-71
2021/04/03 07:45:30;;;;;;;;;;;4.20;84.50;;;;;;5057545;28;19956;-69
2021/04/03 07:47:56;;;;;;;;;;;4.20;83.50;;;;;;5055819;28;19921;-70
2021/04/03 07:50:47;;;;;;;;;;;4.00;84.20;;;;;;5056148;28;19936;-70
2021/04/03 07:53:13;;;;;;;;;;;3.80;84.80;;;;;;5049664;28;19975;-70
2021/04/03 07:55:42;;;;;;;;;;;3.80;84.90;;;;;;5059700;28;19952;-70
2021/04/03 07:58:28;;;;;;;;;;;4.00;84.90;;;;;;5075819;28;19944;-70
2021/04/03 08:00:54;;;;;;;;;;;4.70;83.70;;;;;;5075707;28;19923;-70
2021/04/03 08:03:24;;;;;;;;;;;5.30;81.50;;;;;;5068822;28;20224;-71
2021/04/03 08:05:56;;;;;;;;;;;5.30;79.80;;;;;;5056052;28;19924;-71
2021/04/03 08:08:25;;;;;;;;;;;4.90;80.50;;;;;;5053915;28;19944;-70
2021/04/03 08:11:03;;;;;;;;;;;4.60;81.00;;;;;;5049243;28;19939;-70
2021/04/03 08:13:32;;;;;;;;;;;4.70;81.20;;;;;;5056088;28;19912;-69
2021/04/03 08:16:00;;;;;;;;;;;4.60;81.00;;;;;;5055033;28;20035;-69
2021/04/03 08:18:29;;;;;;;;;;;4.60;81.60;;;;;;5048988;28;19956;-69
2021/04/03 08:20:55;;;;;;;;;;;4.60;81.30;;;;;;5056442;28;19967;-69
2021/04/03 08:23:31;;;;;;;;;;;5.00;81.40;;;;;;5075300;28;19913;-69
2021/04/03 08:25:57;;;;;;;;;;;5.40;79.20;;;;;;5072652;28;19917;-71
2021/04/03 08:28:22;;;;;;;;;;;5.30;79.10;;;;;;5056109;28;19970;-72
2021/04/03 08:30:48;;;;;;;;;;;5.40;79.20;;;;;;5056476;28;19912;-71
2021/04/03 08:33:14;;;;;;;;;;;5.30;79.20;;;;;;5055932;28;19956;-71
2021/04/03 08:35:41;;;;;;;;;;;5.40;79.50;;;;;;5055116;28;19909;-71
2021/04/03 08:38:17;;;;;;;;;;;5.50;79.70;;;;;;5054702;28;19920;-71
2021/04/03 08:40:43;;;;;;;;;;;5.80;78.60;;;;;;5053560;28;19916;-71
2021/04/03 08:43:15;;;;;;;;;;;6.00;77.70;;;;;;5056161;28;20194;-70
2021/04/03 08:45:42;;;;;;;;;;;6.40;77.00;;;;;;5054832;28;19917;-70
2021/04/03 08:48:11;;;;;;;;;;;7.60;73.80;;;;;;5045696;28;19989;-70
2021/04/03 08:50:37;;;;;;;;;;;8.10;70.80;;;;;;5036101;28;19913;-70
2021/04/03 08:53:04;;;;;;;;;;;8.10;71.10;;;;;;5034788;28;20286;-70
2021/04/03 08:55:29;;;;;;;;;;;7.10;72.10;;;;;;5035841;28;20115;-71
2021/04/03 08:57:55;;;;;;;;;;;6.30;74.00;;;;;;5035032;28;20018;-70
2021/04/03 09:00:21;;;;;;;;;;;6.00;75.90;;;;;;5035657;28;20325;-70
2021/04/03 09:02:47;;;;;;;;;;;5.80;76.70;;;;;;5048959;28;19944;-70
2021/04/03 09:05:13;;;;;;;;;;;5.80;77.50;;;;;;5055572;28;19940;-70
2021/04/03 09:07:40;;;;;;;;;;;5.80;77.20;;;;;;5054422;28;19912;-70
2021/04/03 09:10:07;;;;;;;;;;;5.80;76.90;;;;;;5040821;28;19916;-70
2021/04/03 09:12:32;;;;;;;;;;;5.80;77.20;;;;;;5035708;28;19960;-71
2021/04/03 09:14:58;;;;;;;;;;;5.90;76.60;;;;;;5035381;28;20249;-70
2021/04/03 09:17:24;;;;;;;;;;;5.80;75.60;;;;;;5039695;28;19921;-70
2021/04/03 09:19:50;;;;;;;;;;;5.60;76.90;;;;;;5055717;28;19955;-70
2021/04/03 09:22:17;;;;;;;;;;;5.50;77.00;;;;;;5054822;28;19917;-69
2021/04/03 09:24:43;;;;;;;;;;;5.90;76.00;;;;;;5055059;28;19919;-70
2021/04/03 09:27:12;;;;;;;;;;;6.20;75.90;;;;;;5055654;28;19963;-71
2021/04/03 09:29:38;;;;;;;;;;;6.40;75.00;;;;;;5055364;28;19931;-70
2021/04/03 09:32:07;;;;;;;;;;;6.30;73.80;;;;;;5058852;28;19913;-70
2021/04/03 09:34:33;;;;;;;;;;;6.00;75.00;;;;;;5058699;28;19915;-69
2021/04/03 09:37:10;;;;;;;;;;;6.00;75.60;;;;;;5059567;28;19995;-70
2021/04/03 09:39:51;;;;;;;;;;;6.10;75.40;;;;;;5056521;28;20252;-70
2021/04/03 09:42:20;;;;;;;;;;;6.20;75.50;;;;;;5092018;28;20267;-70
2021/04/03 09:44:47;;;;;;;;;;;6.50;75.40;;;;;;5058996;28;19924;-70
2021/04/03 09:47:13;;;;;;;;;;;6.70;74.20;;;;;;5059482;28;20007;-70
2021/04/03 09:49:39;;;;;;;;;;;6.50;74.50;;;;;;5058538;28;19951;-70
2021/04/03 09:52:05;;;;;;;;;;;6.60;75.20;;;;;;5059423;28;20338;-71
2021/04/03 09:54:30;;;;;;;;;;;6.80;74.40;;;;;;5057777;28;19912;-69
2021/04/03 09:56:56;;;;;;;;;;;6.80;73.80;;;;;;5059050;28;19996;-70
2021/04/03 09:59:22;;;;;;;;;;;7.10;73.60;;;;;;5057483;28;19920;-70
2021/04/03 10:01:50;;;;;;;;;;;7.60;72.40;;;;;;5057712;28;19956;-70
2021/04/03 10:04:18;;;;;;;;;;;8.60;69.80;;;;;;5058035;28;19908;-70
2021/04/03 10:06:44;;;;;;;;;;;8.20;69.30;;;;;;5058977;28;19917;-70
2021/04/03 10:09:10;;;;;;;;;;;7.90;69.90;;;;;;5056555;28;19916;-70
2021/04/03 10:11:35;;;;;;;;;;;7.70;70.10;;;;;;5058318;28;19973;-70
2021/04/03 10:14:04;;;;;;;;;;;7.90;70.00;;;;;;5058490;28;19956;-70
2021/04/03 10:16:29;;;;;;;;;;;9.20;67.80;;;;;;5058652;28;19923;-70
2021/04/03 10:19:02;;;;;;;;;;;9.40;67.60;;;;;;5058605;28;19913;-70
2021/04/03 10:21:28;;;;;;;;;;;9.60;65.30;;;;;;5057420;28;20055;-69
2021/04/03 10:23:55;;;;;;;;;;;9.40;64.40;;;;;;5056068;28;20011;-70
2021/04/03 10:26:20;;;;;;;;;;;9.00;65.30;;;;;;5058542;28;19924;-70
2021/04/03 10:28:46;;;;;;;;;;;9.60;66.60;;;;;;5058347;28;20003;-69
2021/04/03 10:31:12;;;;;;;;;;;10.80;63.20;;;;;;5057630;28;19920;-70
2021/04/03 10:33:38;;;;;;;;;;;11.00;62.80;;;;;;5042702;28;20318;-70
2021/04/03 10:36:07;;;;;;;;;;;11.50;60.80;;;;;;5046291;28;19917;-69
2021/04/03 10:38:34;;;;;;;;;;;11.60;60.30;;;;;;5052722;28;20229;-69
2021/04/03 10:41:02;;;;;;;;;;;11.50;60.00;;;;;;5057575;28;19941;-69
2021/04/03 10:43:29;;;;;;;;;;;10.90;60.40;;;;;;5057127;28;19920;-69
2021/04/03 10:45:54;;;;;;;;;;;9.80;62.10;;;;;;5057612;28;20242;-70
2021/04/03 10:48:20;;;;;;;;;;;9.10;63.80;;;;;;5057793;28;19927;-69
2021/04/03 10:50:48;;;;;;;;;;;8.50;65.70;;;;;;5057959;28;19920;-70
2021/04/03 10:53:14;;;;;;;;;;;8.00;67.00;;;;;;5056954;28;19951;-69
2021/04/03 10:55:39;;;;;;;;;;;7.80;67.50;;;;;;5057734;28;19960;-70
2021/04/03 10:58:05;;;;;;;;;;;7.60;68.00;;;;;;5057269;28;19919;-70
2021/04/03 11:00:34;;;;;;;;;;;8.60;67.40;;;;;;5057579;28;20004;-70
2021/04/03 11:02:59;;;;;;;;;;;10.40;62.40;;;;;;5058056;28;19916;-70
2021/04/03 11:05:25;;;;;;;;;;;11.50;59.80;;;;;;5057601;28;19917;-70
2021/04/03 11:07:50;;;;;;;;;;;11.60;58.40;;;;;;5056226;28;19942;-69
2021/04/03 11:10:16;;;;;;;;;;;11.30;59.90;;;;;;5057673;28;19919;-68
2021/04/03 11:12:42;;;;;;;;;;;11.40;60.80;;;;;;5057568;28;19931;-68
2021/04/03 11:15:08;;;;;;;;;;;12.50;57.70;;;;;;5057566;28;19943;-68
2021/04/03 11:17:33;;;;;;;;;;;12.90;55.30;;;;;;5056696;28;19920;-67
2021/04/03 11:20:09;;;;;;;;;;;12.40;56.00;;;;;;5057623;28;20047;-69
2021/04/03 11:22:35;;;;;;;;;;;12.10;58.30;;;;;;5056346;28;19966;-69
2021/04/03 11:25:01;;;;;;;;;;;12.20;56.40;;;;;;5057340;28;19912;-68
2021/04/03 11:27:26;;;;;;;;;;;11.10;58.60;;;;;;5057424;28;20301;-69
2021/04/03 11:29:51;;;;;;;;;;;10.50;59.70;;;;;;5057205;28;19913;-69
2021/04/03 11:32:17;;;;;;;;;;;10.10;61.70;;;;;;5056418;28;19912;-70
2021/04/03 11:34:43;;;;;;;;;;;9.70;62.70;;;;;;5057342;28;20213;-69
2021/04/03 11:37:08;;;;;;;;;;;9.00;63.40;;;;;;5057393;28;19909;-69
2021/04/03 11:39:34;;;;;;;;;;;8.60;65.80;;;;;;5055957;28;20003;-71
2021/04/03 11:42:00;;;;;;;;;;;8.30;65.70;;;;;;5057236;28;19908;-69
2021/04/03 11:44:26;;;;;;;;;;;8.30;66.60;;;;;;5056014;28;20316;-70
2021/04/03 11:46:52;;;;;;;;;;;8.60;65.80;;;;;;5057037;28;19971;-69
2021/04/03 11:49:18;;;;;;;;;;;9.80;64.90;;;;;;5050891;28;19919;-68
2021/04/03 11:51:44;;;;;;;;;;;11.20;61.40;;;;;;5056613;28;20003;-69
2021/04/03 11:54:14;;;;;;;;;;;12.20;58.30;;;;;;5053008;28;20327;-70
2021/04/03 11:56:39;;;;;;;;;;;12.30;57.50;;;;;;5056486;28;19912;-69
2021/04/03 11:59:05;;;;;;;;;;;12.40;57.40;;;;;;5056800;28;19913;-69
2021/04/03 12:01:30;;;;;;;;;;;11.90;57.80;;;;;;5068106;28;20308;-69
2021/04/03 12:03:56;;;;;;;;;;;11.40;57.60;;;;;;5076281;28;19948;-70
2021/04/03 12:06:21;;;;;;;;;;;10.70;59.80;;;;;;5076835;28;19920;-69
2021/04/03 12:08:47;;;;;;;;;;;10.60;59.80;;;;;;5058886;28;19921;-70
2021/04/03 12:11:13;;;;;;;;;;;10.70;60.10;;;;;;5056648;28;19909;-70
2021/04/03 12:13:38;;;;;;;;;;;10.80;59.70;;;;;;5056192;28;19969;-69
2021/04/03 12:16:04;;;;;;;;;;;10.80;59.40;;;;;;5056429;28;19924;-70
2021/04/03 12:18:29;;;;;;;;;;;11.10;59.80;;;;;;5053879;28;19983;-70
2021/04/03 12:20:55;;;;;;;;;;;11.50;59.30;;;;;;5056213;28;20465;-69
2021/04/03 12:23:21;;;;;;;;;;;11.20;58.60;;;;;;5055354;28;20206;-70
2021/04/03 12:25:46;;;;;;;;;;;10.40;60.50;;;;;;5055900;28;20249;-69
2021/04/03 12:28:12;;;;;;;;;;;10.10;61.50;;;;;;5055684;28;19913;-70
2021/04/03 12:30:37;;;;;;;;;;;10.40;61.20;;;;;;5056091;28;19950;-69
2021/04/03 12:33:04;;;;;;;;;;;10.30;60.70;;;;;;5056317;28;19909;-69
2021/04/03 12:35:30;;;;;;;;;;;10.10;61.70;;;;;;5056088;28;19917;-69
2021/04/03 12:37:55;;;;;;;;;;;10.10;61.40;;;;;;5054878;28;19920;-69
2021/04/03 12:40:24;;;;;;;;;;;9.90;61.70;;;;;;5055832;28;19928;-69
2021/04/03 12:42:49;;;;;;;;;;;9.80;63.30;;;;;;5056255;28;19916;-69
2021/04/03 12:45:15;;;;;;;;;;;9.90;62.50;;;;;;5055623;28;19917;-69
2021/04/03 12:47:40;;;;;;;;;;;9.60;63.00;;;;;;5043984;28;19920;-69
2021/04/03 12:50:07;;;;;;;;;;;9.00;62.90;;;;;;5052374;28;19913;-69
2021/04/03 12:52:33;;;;;;;;;;;9.00;63.80;;;;;;5052846;28;20472;-69
2021/04/03 12:54:58;;;;;;;;;;;8.80;65.60;;;;;;5055922;28;19913;-69
2021/04/03 12:57:24;;;;;;;;;;;8.90;65.30;;;;;;5055070;28;19913;-69
2021/04/03 12:59:49;;;;;;;;;;;9.00;64.50;;;;;;5054405;28;19913;-68
2021/04/03 13:02:17;;;;;;;;;;;8.70;65.40;;;;;;5054986;28;19977;-69
2021/04/03 13:04:42;;;;;;;;;;;8.70;65.60;;;;;;5055387;28;19917;-69
2021/04/03 13:07:08;;;;;;;;;;;8.70;65.30;;;;;;5054871;28;19920;-69
2021/04/03 13:09:34;;;;;;;;;;;8.90;65.00;;;;;;5054125;28;19917;-69
2021/04/03 13:11:59;;;;;;;;;;;9.30;64.90;;;;;;5055463;28;19913;-70
2021/04/03 13:14:25;;;;;;;;;;;9.70;64.20;;;;;;5055611;28;19925;-70
2021/04/03 13:16:52;;;;;;;;;;;10.20;63.50;;;;;;5054840;28;20471;-70
2021/04/03 13:19:17;;;;;;;;;;;10.50;61.60;;;;;;5054976;28;19916;-70
2021/04/03 13:21:43;;;;;;;;;;;10.50;62.00;;;;;;5055210;28;19916;-68
2021/04/03 13:24:08;;;;;;;;;;;11.30;61.60;;;;;;5054293;28;19909;-69
2021/04/03 13:26:34;;;;;;;;;;;11.40;59.30;;;;;;5055326;28;19963;-69
2021/04/03 13:28:59;;;;;;;;;;;11.60;59.40;;;;;;5055515;28;19924;-70
2021/04/03 13:31:27;;;;;;;;;;;11.40;58.90;;;;;;5053382;28;19917;-68
2021/04/03 13:33:53;;;;;;;;;;;11.10;58.70;;;;;;5055260;28;19909;-69
2021/04/03 13:36:19;;;;;;;;;;;10.40;58.80;;;;;;5055207;28;19920;-69
2021/04/03 13:38:44;;;;;;;;;;;10.10;59.20;;;;;;5054215;28;19915;-69
2021/04/03 13:41:10;;;;;;;;;;;10.00;59.50;;;;;;5055078;28;19913;-68
2021/04/03 13:43:38;;;;;;;;;;;10.40;60.00;;;;;;5055331;28;19913;-71
2021/04/03 13:46:06;;;;;;;;;;;10.80;58.30;;;;;;5053791;28;20309;-69
2021/04/03 13:48:31;;;;;;;;;;;10.90;57.40;;;;;;5055382;28;20264;-69
2021/04/03 13:51:00;;;;;;;;;;;10.90;57.80;;;;;;5054036;28;19920;-69
2021/04/03 13:53:25;;;;;;;;;;;10.90;57.40;;;;;;5054125;28;19912;-69
2021/04/03 13:55:51;;;;;;;;;;;10.60;58.60;;;;;;5054991;28;19924;-69
2021/04/03 13:58:23;;;;;;;;;;;10.50;57.60;;;;;;5055106;28;19920;-69
2021/04/03 14:00:49;;;;;;;;;;;10.30;57.40;;;;;;5054763;28;19940;-70
2021/04/03 14:03:17;;;;;;;;;;;10.10;59.50;;;;;;5054685;28;19919;-69
2021/04/03 14:05:44;;;;;;;;;;;10.10;59.80;;;;;;5054662;28;19927;-70
2021/04/03 14:08:13;;;;;;;;;;;9.90;59.10;;;;;;5053962;28;20007;-70
2021/04/03 14:10:41;;;;;;;;;;;9.70;59.80;;;;;;5049707;28;19910;-70
2021/04/03 14:13:06;;;;;;;;;;;9.90;59.30;;;;;;5034842;28;19909;-69
2021/04/03 14:15:32;;;;;;;;;;;9.90;58.80;;;;;;5038386;28;20008;-69
2021/04/03 14:17:58;;;;;;;;;;;9.60;59.80;;;;;;5056206;28;20008;-70
2021/04/03 14:20:23;;;;;;;;;;;9.80;60.00;;;;;;5058470;28;19924;-69
2021/04/03 14:22:49;;;;;;;;;;;10.20;59.20;;;;;;5057729;28;19909;-69
2021/04/03 14:25:18;;;;;;;;;;;10.40;58.00;;;;;;5058155;28;20220;-70
2021/04/03 14:27:43;;;;;;;;;;;10.70;57.30;;;;;;5058399;28;19913;-69